Corunna, Michigan
Current Conditions -  °F | °C
As of 5:54 PM on Monday 24 Nov 2014 (Local Time) from KRNP Reporting Station
Overcast Overcast  
Wind Chill: 24°   Ceiling: 1900
Heat Index: 36°   Visibility: 10mi
Dew Point: 31°   Wind: 24mph
Humidity: 83%   Direction: 230°SW
Pressure: 29.43"   Gusts: 33mph
Location:  42.98°N, 84.12°W
Report Text: KRNP 242254Z AUTO 23021G29KT 10SM OVC019 02/00 A2943 RMK AO2 T00221004
Loading
Personal Weather Stations






























Interactive Weather Map New forecast layout! Learn more

10-Day Weather Forecast

Advertisements
Track Severe Weather on mobile